Aeroporto :
LOGIN :

Iscrizione | Disclaimer

   EN    FR    IT 

 










Sommario :    VFR   VFR Marginale   IFR   IFR Intensivo   IFR Molto Intensivo
Visibilità : 
Base nubi : 
>= 8 km
>= 3000ft
5 / 8 km
1000 / 3000 ft
1500m / 5 km
500 / 1000 ft
800 / 1500m
200 / 500 ft
< 800m
< 200 ft
Simboli :   Temporali  Nebbia  Neve Forte  Precipitazioni Forti  Vento > 20 kt
SIGMETs :   Varie  Temporali  Ghiacco  Turbolenza  Onda orograficha  Ceneri Vulcaniche






- Altitudine del aeroporto : 22 ft
- Codice IATA : TUN


DTTA - Tunis Carthage

ULTIMO METAR :
  • 070930Z 01004KT 280V060 9999 FEW033 19/11 Q1026

METARs OBSOLETI :
  • 070900Z VRB02KT 9999 FEW033 18/10 Q1026
  • 070830Z VRB01KT 8000 FEW033 17/10 Q1026
  • 070800Z VRB02KT 8000 FEW033 15/09 Q1026
  • 070730Z 14003KT 100V180 8000 FEW033 14/09 Q1026
  • 070700Z 16003KT 120V210 8000 FEW033 13/09 Q1025

TAF TAF DTTA
Valido dal 07 a 06 ore il 08 a 06 ore UTC


070500Z 0706/0806 19003KT 9999 FEW033
BECMG 0713/0715 07010KT
BECMG 0719/0721 13003KT
PROB30 0804/0806 3000 BR



MetMap, La meteo Aeronautica in un colpo d'occhio ! - Copyright ORBIFLY Dicembre 2007 - Disclaimer

ORBIFLY MET'MAP TEAM :

Programmazione e sviluppo : Alexandra Zaïnal
Concezione : Baudouin d'Aumeries
Aiuto per la programmazione : Marc-Olivier Méhu
Supporto tecnico e logistico : Manuel Goepfert
Aiuto per la traduzione : Arnaldo La Scala

Contatto : metmap@orbifly.com




FONTI E CREDITI :

   NOAA